sensor_id;sensor_type;location;lat;lon;timestamp;pressure;altitude;pressure_sealevel;temperature;humidity
73860;BME280;62197;51.632;13.700;2023-03-01T00:01:30;101700.63;;;-5.02;100.00
73860;BME280;62197;51.632;13.700;2023-03-01T00:03:56;101713.34;;;-5.04;100.00
73860;BME280;62197;51.632;13.700;2023-03-01T00:06:22;101689.72;;;-5.24;100.00
73860;BME280;62197;51.632;13.700;2023-03-01T00:08:48;101689.72;;;-5.24;100.00
73860;BME280;62197;51.632;13.700;2023-03-01T00:11:16;101703.91;;;-5.22;100.00
73860;BME280;62197;51.632;13.700;2023-03-01T00:13:45;101701.53;;;-5.14;100.00
73860;BME280;62197;51.632;13.700;2023-03-01T00:16:15;101708.34;;;-5.21;100.00
73860;BME280;62197;51.632;13.700;2023-03-01T00:18:41;101711.69;;;-5.30;100.00
73860;BME280;62197;51.632;13.700;2023-03-01T00:21:06;101703.09;;;-5.35;100.00
73860;BME280;62197;51.632;13.700;2023-03-01T00:23:34;101714.28;;;-5.29;100.00
73860;BME280;62197;51.632;13.700;2023-03-01T00:25:59;101702.41;;;-5.26;100.00
73860;BME280;62197;51.632;13.700;2023-03-01T00:28:25;101709.66;;;-5.27;100.00
73860;BME280;62197;51.632;13.700;2023-03-01T00:30:50;101705.22;;;-5.28;100.00
73860;BME280;62197;51.632;13.700;2023-03-01T00:33:16;101713.16;;;-5.26;100.00
73860;BME280;62197;51.632;13.700;2023-03-01T00:35:41;101701.69;;;-5.28;100.00
73860;BME280;62197;51.632;13.700;2023-03-01T00:38:06;101691.88;;;-5.29;100.00
73860;BME280;62197;51.632;13.700;2023-03-01T00:40:33;101694.06;;;-5.34;100.00
73860;BME280;62197;51.632;13.700;2023-03-01T00:43:00;101674.16;;;-5.44;100.00
73860;BME280;62197;51.632;13.700;2023-03-01T00:45:25;101669.31;;;-5.39;100.00
73860;BME280;62197;51.632;13.700;2023-03-01T00:47:51;101666.97;;;-5.44;100.00
73860;BME280;62197;51.632;13.700;2023-03-01T00:50:16;101671.69;;;-5.47;100.00
73860;BME280;62197;51.632;13.700;2023-03-01T00:52:42;101668.78;;;-5.44;100.00
73860;BME280;62197;51.632;13.700;2023-03-01T00:55:08;101667.28;;;-5.48;100.00
73860;BME280;62197;51.632;13.700;2023-03-01T00:57:33;101665.03;;;-5.55;100.00
73860;BME280;62197;51.632;13.700;2023-03-01T00:59:59;101672.59;;;-5.60;100.00
73860;BME280;62197;51.632;13.700;2023-03-01T01:02:24;101678.38;;;-5.66;100.00
73860;BME280;62197;51.632;13.700;2023-03-01T01:04:50;101667.50;;;-5.77;100.00
73860;BME280;62197;51.632;13.700;2023-03-01T01:07:16;101679.03;;;-5.75;100.00
73860;BME280;62197;51.632;13.700;2023-03-01T01:09:41;101679.88;;;-5.74;100.00
73860;BME280;62197;51.632;13.700;2023-03-01T01:12:07;101676.03;;;-5.83;100.00
73860;BME280;62197;51.632;13.700;2023-03-01T01:14:33;101677.31;;;-5.76;100.00
73860;BME280;62197;51.632;13.700;2023-03-01T01:16:58;101669.19;;;-5.87;100.00
73860;BME280;62197;51.632;13.700;2023-03-01T01:19:24;101662.25;;;-5.78;100.00
73860;BME280;62197;51.632;13.700;2023-03-01T01:21:50;101676.25;;;-5.73;100.00
73860;BME280;62197;51.632;13.700;2023-03-01T01:24:15;101647.88;;;-5.90;100.00
73860;BME280;62197;51.632;13.700;2023-03-01T01:26:42;101664.81;;;-5.77;100.00
73860;BME280;62197;51.632;13.700;2023-03-01T01:29:08;101652.84;;;-5.84;100.00
73860;BME280;62197;51.632;13.700;2023-03-01T01:31:34;101659.25;;;-5.74;100.00
73860;BME280;62197;51.632;13.700;2023-03-01T01:34:01;101661.81;;;-5.72;100.00
73860;BME280;62197;51.632;13.700;2023-03-01T01:36:27;101660.75;;;-5.70;100.00
73860;BME280;62197;51.632;13.700;2023-03-01T01:38:53;101658.19;;;-5.71;100.00
73860;BME280;62197;51.632;13.700;2023-03-01T01:41:19;101653.66;;;-5.71;100.00
73860;BME280;62197;51.632;13.700;2023-03-01T01:43:48;101642.09;;;-5.84;100.00
73860;BME280;62197;51.632;13.700;2023-03-01T01:46:21;101641.84;;;-5.81;100.00
73860;BME280;62197;51.632;13.700;2023-03-01T01:48:57;101647.56;;;-5.85;100.00
73860;BME280;62197;51.632;13.700;2023-03-01T01:51:28;101656.69;;;-5.88;100.00
73860;BME280;62197;51.632;13.700;2023-03-01T01:54:00;101653.06;;;-5.87;100.00
73860;BME280;62197;51.632;13.700;2023-03-01T01:56:26;101628.34;;;-6.04;100.00
73860;BME280;62197;51.632;13.700;2023-03-01T01:58:53;101646.91;;;-6.01;100.00
73860;BME280;62197;51.632;13.700;2023-03-01T02:01:19;101616.72;;;-6.17;100.00
73860;BME280;62197;51.632;13.700;2023-03-01T02:03:46;101636.28;;;-6.03;100.00
73860;BME280;62197;51.632;13.700;2023-03-01T02:06:27;101617.38;;;-6.14;100.00
73860;BME280;62197;51.632;13.700;2023-03-01T02:08:55;101627.47;;;-6.05;100.00
73860;BME280;62197;51.632;13.700;2023-03-01T02:11:22;101631.34;;;-6.09;100.00
73860;BME280;62197;51.632;13.700;2023-03-01T02:13:48;101625.00;;;-6.08;100.00
73860;BME280;62197;51.632;13.700;2023-03-01T02:16:15;101631.56;;;-6.12;100.00
73860;BME280;62197;51.632;13.700;2023-03-01T02:18:41;101607.50;;;-6.26;100.00
73860;BME280;62197;51.632;13.700;2023-03-01T02:21:26;101622.84;;;-6.15;100.00
73860;BME280;62197;51.632;13.700;2023-03-01T02:23:54;101622.75;;;-6.14;100.00
73860;BME280;62197;51.632;13.700;2023-03-01T02:26:30;101621.25;;;-6.18;100.00
73860;BME280;62197;51.632;13.700;2023-03-01T02:28:59;101609.00;;;-6.22;100.00
73860;BME280;62197;51.632;13.700;2023-03-01T02:31:24;101608.34;;;-6.13;100.00
73860;BME280;62197;51.632;13.700;2023-03-01T02:34:14;101604.03;;;-6.15;100.00
73860;BME280;62197;51.632;13.700;2023-03-01T02:36:45;101588.25;;;-6.32;100.00
73860;BME280;62197;51.632;13.700;2023-03-01T02:39:15;101602.97;;;-6.25;100.00
73860;BME280;62197;51.632;13.700;2023-03-01T02:41:47;101606.84;;;-6.17;100.00
73860;BME280;62197;51.632;13.700;2023-03-01T02:44:13;101605.97;;;-6.17;100.00
73860;BME280;62197;51.632;13.700;2023-03-01T02:46:47;101611.78;;;-6.36;100.00
73860;BME280;62197;51.632;13.700;2023-03-01T02:49:39;101619.63;;;-6.33;100.00
73860;BME280;62197;51.632;13.700;2023-03-01T02:55:08;101612.00;;;-6.39;100.00
73860;BME280;62197;51.632;13.700;2023-03-01T02:57:36;101612.84;;;-6.38;100.00
73860;BME280;62197;51.632;13.700;2023-03-01T03:00:09;101617.38;;;-6.39;100.00
73860;BME280;62197;51.632;13.700;2023-03-01T03:02:36;101612.41;;;-6.45;100.00
73860;BME280;62197;51.632;13.700;2023-03-01T03:07:34;101606.72;;;-6.53;100.00
73860;BME280;62197;51.632;13.700;2023-03-01T03:10:01;101607.88;;;-6.57;100.00
73860;BME280;62197;51.632;13.700;2023-03-01T03:12:26;101602.09;;;-6.51;100.00
73860;BME280;62197;51.632;13.700;2023-03-01T03:14:52;101609.16;;;-6.50;100.00
73860;BME280;62197;51.632;13.700;2023-03-01T03:17:17;101611.09;;;-6.52;100.00
73860;BME280;62197;51.632;13.700;2023-03-01T03:19:43;101590.91;;;-6.70;100.00
73860;BME280;62197;51.632;13.700;2023-03-01T03:22:13;101598.94;;;-6.70;100.00
73860;BME280;62197;51.632;13.700;2023-03-01T03:24:38;101597.22;;;-6.71;100.00
73860;BME280;62197;51.632;13.700;2023-03-01T03:27:05;101596.47;;;-6.73;100.00
73860;BME280;62197;51.632;13.700;2023-03-01T03:29:30;101610.09;;;-6.64;100.00
73860;BME280;62197;51.632;13.700;2023-03-01T03:31:56;101602.28;;;-6.67;100.00
73860;BME280;62197;51.632;13.700;2023-03-01T03:34:21;101591.31;;;-6.76;100.00
73860;BME280;62197;51.632;13.700;2023-03-01T03:36:47;101603.75;;;-6.75;100.00
73860;BME280;62197;51.632;13.700;2023-03-01T03:39:12;101608.47;;;-6.79;100.00
73860;BME280;62197;51.632;13.700;2023-03-01T03:41:38;101596.44;;;-6.86;100.00
73860;BME280;62197;51.632;13.700;2023-03-01T03:44:03;101592.53;;;-6.94;100.00
73860;BME280;62197;51.632;13.700;2023-03-01T03:46:28;101599.25;;;-6.87;100.00
73860;BME280;62197;51.632;13.700;2023-03-01T03:48:54;101601.16;;;-6.89;100.00
73860;BME280;62197;51.632;13.700;2023-03-01T03:51:19;101603.09;;;-6.91;100.00
73860;BME280;62197;51.632;13.700;2023-03-01T03:53:45;101607.38;;;-6.89;100.00
73860;BME280;62197;51.632;13.700;2023-03-01T03:56:11;101600.88;;;-6.72;100.00
73860;BME280;62197;51.632;13.700;2023-03-01T03:58:37;101596.28;;;-6.70;100.00
73860;BME280;62197;51.632;13.700;2023-03-01T04:01:03;101593.69;;;-6.72;100.00
73860;BME280;62197;51.632;13.700;2023-03-01T04:03:29;101590.59;;;-6.53;100.00
73860;BME280;62197;51.632;13.700;2023-03-01T04:05:58;101587.16;;;-6.55;100.00
73860;BME280;62197;51.632;13.700;2023-03-01T04:08:24;101599.28;;;-6.62;100.00
73860;BME280;62197;51.632;13.700;2023-03-01T04:10:51;101600.78;;;-6.71;100.00
73860;BME280;62197;51.632;13.700;2023-03-01T04:13:20;101595.84;;;-6.64;100.00
73860;BME280;62197;51.632;13.700;2023-03-01T04:15:48;101574.38;;;-6.64;100.00
73860;BME280;62197;51.632;13.700;2023-03-01T04:18:15;101590.38;;;-6.63;100.00
73860;BME280;62197;51.632;13.700;2023-03-01T04:20:42;101591.09;;;-6.73;100.00
73860;BME280;62197;51.632;13.700;2023-03-01T04:23:10;101573.56;;;-6.91;100.00
73860;BME280;62197;51.632;13.700;2023-03-01T04:25:54;101590.97;;;-6.84;100.00
73860;BME280;62197;51.632;13.700;2023-03-01T04:28:25;101586.13;;;-6.92;100.00
73860;BME280;62197;51.632;13.700;2023-03-01T04:30:51;101587.75;;;-6.89;100.00
73860;BME280;62197;51.632;13.700;2023-03-01T04:33:18;101570.72;;;-7.02;100.00
73860;BME280;62197;51.632;13.700;2023-03-01T04:35:44;101578.19;;;-6.93;100.00
73860;BME280;62197;51.632;13.700;2023-03-01T04:38:09;101590.22;;;-6.86;100.00
73860;BME280;62197;51.632;13.700;2023-03-01T04:40:35;101588.50;;;-6.87;100.00
73860;BME280;62197;51.632;13.700;2023-03-01T04:43:00;101568.28;;;-7.05;100.00
73860;BME280;62197;51.632;13.700;2023-03-01T04:45:26;101592.75;;;-6.97;100.00
73860;BME280;62197;51.632;13.700;2023-03-01T04:47:52;101592.25;;;-6.90;100.00
73860;BME280;62197;51.632;13.700;2023-03-01T04:50:18;101601.34;;;-6.92;100.00
73860;BME280;62197;51.632;13.700;2023-03-01T04:52:48;101605.25;;;-6.84;100.00
73860;BME280;62197;51.632;13.700;2023-03-01T04:55:14;101581.41;;;-6.88;100.00
73860;BME280;62197;51.632;13.700;2023-03-01T04:57:39;101576.22;;;-7.04;100.00
73860;BME280;62197;51.632;13.700;2023-03-01T05:00:07;101583.91;;;-6.85;100.00
73860;BME280;62197;51.632;13.700;2023-03-01T05:02:59;101579.47;;;-6.86;100.00
73860;BME280;62197;51.632;13.700;2023-03-01T05:05:31;101579.69;;;-6.89;100.00
73860;BME280;62197;51.632;13.700;2023-03-01T05:07:59;101569.03;;;-7.03;100.00
73860;BME280;62197;51.632;13.700;2023-03-01T05:10:26;101579.25;;;-6.96;100.00
73860;BME280;62197;51.632;13.700;2023-03-01T05:12:54;101570.78;;;-6.90;100.00
73860;BME280;62197;51.632;13.700;2023-03-01T05:15:19;101566.59;;;-6.81;100.00
73860;BME280;62197;51.632;13.700;2023-03-01T05:17:47;101575.75;;;-6.71;100.00
73860;BME280;62197;51.632;13.700;2023-03-01T05:20:12;101573.50;;;-6.52;100.00
73860;BME280;62197;51.632;13.700;2023-03-01T05:22:38;101576.22;;;-6.39;100.00
73860;BME280;62197;51.632;13.700;2023-03-01T05:25:04;101564.31;;;-6.35;100.00
73860;BME280;62197;51.632;13.700;2023-03-01T05:27:30;101549.06;;;-6.35;100.00
73860;BME280;62197;51.632;13.700;2023-03-01T05:29:56;101569.13;;;-6.03;100.00
73860;BME280;62197;51.632;13.700;2023-03-01T05:32:21;101579.19;;;-5.94;100.00
73860;BME280;62197;51.632;13.700;2023-03-01T05:34:47;101580.19;;;-5.95;100.00
73860;BME280;62197;51.632;13.700;2023-03-01T05:37:13;101560.22;;;-6.16;100.00
73860;BME280;62197;51.632;13.700;2023-03-01T05:39:39;101579.34;;;-6.20;100.00
73860;BME280;62197;51.632;13.700;2023-03-01T05:42:04;101555.88;;;-6.56;100.00
73860;BME280;62197;51.632;13.700;2023-03-01T05:44:30;101559.63;;;-6.71;100.00
73860;BME280;62197;51.632;13.700;2023-03-01T05:46:55;101566.41;;;-6.78;100.00
73860;BME280;62197;51.632;13.700;2023-03-01T05:49:21;101564.47;;;-6.76;100.00
73860;BME280;62197;51.632;13.700;2023-03-01T05:51:50;101560.16;;;-6.79;100.00
73860;BME280;62197;51.632;13.700;2023-03-01T05:54:17;101582.28;;;-6.75;100.00
73860;BME280;62197;51.632;13.700;2023-03-01T05:56:42;101579.94;;;-6.80;100.00
73860;BME280;62197;51.632;13.700;2023-03-01T05:59:08;101577.13;;;-6.78;100.00
73860;BME280;62197;51.632;13.700;2023-03-01T06:01:34;101585.94;;;-6.76;100.00
73860;BME280;62197;51.632;13.700;2023-03-01T06:04:01;101583.44;;;-6.79;100.00
73860;BME280;62197;51.632;13.700;2023-03-01T06:06:26;101588.53;;;-6.75;100.00
73860;BME280;62197;51.632;13.700;2023-03-01T06:08:52;101584.88;;;-6.74;100.00
73860;BME280;62197;51.632;13.700;2023-03-01T06:11:18;101593.69;;;-6.72;100.00
73860;BME280;62197;51.632;13.700;2023-03-01T06:13:44;101602.75;;;-6.60;100.00
73860;BME280;62197;51.632;13.700;2023-03-01T06:16:10;101589.09;;;-6.57;100.00
73860;BME280;62197;51.632;13.700;2023-03-01T06:18:36;101572.34;;;-6.48;100.00
73860;BME280;62197;51.632;13.700;2023-03-01T06:21:03;101577.91;;;-6.38;100.00
73860;BME280;62197;51.632;13.700;2023-03-01T06:23:28;101561.94;;;-6.40;100.00
73860;BME280;62197;51.632;13.700;2023-03-01T06:25:54;101582.13;;;-6.22;100.00
73860;BME280;62197;51.632;13.700;2023-03-01T06:28:19;101565.03;;;-6.21;100.00
73860;BME280;62197;51.632;13.700;2023-03-01T06:30:45;101567.59;;;-6.07;100.00
73860;BME280;62197;51.632;13.700;2023-03-01T06:33:11;101568.47;;;-6.06;100.00
73860;BME280;62197;51.632;13.700;2023-03-01T06:35:36;101574.38;;;-5.89;100.00
73860;BME280;62197;51.632;13.700;2023-03-01T06:38:03;101568.28;;;-5.80;100.00
73860;BME280;62197;51.632;13.700;2023-03-01T06:40:29;101590.19;;;-5.61;100.00
73860;BME280;62197;51.632;13.700;2023-03-01T06:42:56;101575.72;;;-5.47;100.00
73860;BME280;62197;51.632;13.700;2023-03-01T06:45:22;101579.13;;;-5.32;100.00
73860;BME280;62197;51.632;13.700;2023-03-01T06:47:48;101580.16;;;-5.22;100.00
73860;BME280;62197;51.632;13.700;2023-03-01T06:50:14;101583.41;;;-5.06;100.00
73860;BME280;62197;51.632;13.700;2023-03-01T06:52:39;101565.72;;;-4.98;100.00
73860;BME280;62197;51.632;13.700;2023-03-01T06:55:06;101576.19;;;-4.82;100.00
73860;BME280;62197;51.632;13.700;2023-03-01T06:57:31;101582.69;;;-4.74;100.00
73860;BME280;62197;51.632;13.700;2023-03-01T06:59:56;101575.50;;;-4.73;100.00
73860;BME280;62197;51.632;13.700;2023-03-01T07:02:22;101582.78;;;-4.51;100.00
73860;BME280;62197;51.632;13.700;2023-03-01T07:04:49;101563.94;;;-4.40;100.00
73860;BME280;62197;51.632;13.700;2023-03-01T07:07:14;101560.31;;;-4.28;100.00
73860;BME280;62197;51.632;13.700;2023-03-01T07:09:40;101573.56;;;-4.03;100.00
73860;BME280;62197;51.632;13.700;2023-03-01T07:12:05;101563.63;;;-3.92;100.00
73860;BME280;62197;51.632;13.700;2023-03-01T07:14:31;101536.44;;;-4.00;100.00
73860;BME280;62197;51.632;13.700;2023-03-01T07:16:56;101565.09;;;-3.77;100.00
73860;BME280;62197;51.632;13.700;2023-03-01T07:19:22;101563.84;;;-3.61;100.00
73860;BME280;62197;51.632;13.700;2023-03-01T07:21:47;101568.00;;;-3.46;100.00
73860;BME280;62197;51.632;13.700;2023-03-01T07:24:12;101565.53;;;-3.38;100.00
73860;BME280;62197;51.632;13.700;2023-03-01T07:26:38;101557.53;;;-3.29;100.00
73860;BME280;62197;51.632;13.700;2023-03-01T07:29:05;101557.84;;;-3.11;100.00
73860;BME280;62197;51.632;13.700;2023-03-01T07:31:31;101560.28;;;0.18;100.00
73860;BME280;62197;51.632;13.700;2023-03-01T07:33:57;101566.34;;;1.46;100.00
73860;BME280;62197;51.632;13.700;2023-03-01T07:36:23;101564.41;;;1.21;92.24
73860;BME280;62197;51.632;13.700;2023-03-01T07:38:48;101568.38;;;2.05;92.76
73860;BME280;62197;51.632;13.700;2023-03-01T07:41:14;101558.75;;;1.14;94.69
73860;BME280;62197;51.632;13.700;2023-03-01T07:43:39;101556.22;;;2.92;89.25
73860;BME280;62197;51.632;13.700;2023-03-01T07:46:05;101564.19;;;2.44;88.31
73860;BME280;62197;51.632;13.700;2023-03-01T07:48:32;101563.03;;;1.95;84.77
73860;BME280;62197;51.632;13.700;2023-03-01T07:50:58;101566.06;;;1.31;89.23
73860;BME280;62197;51.632;13.700;2023-03-01T07:53:23;101569.56;;;0.79;88.35
73860;BME280;62197;51.632;13.700;2023-03-01T07:55:49;101562.47;;;1.13;87.49
73860;BME280;62197;51.632;13.700;2023-03-01T07:58:14;101571.56;;;2.26;86.85
73860;BME280;62197;51.632;13.700;2023-03-01T08:00:39;101574.75;;;2.47;83.21
73860;BME280;62197;51.632;13.700;2023-03-01T08:03:05;101570.50;;;0.87;85.66
73860;BME280;62197;51.632;13.700;2023-03-01T08:05:30;101579.69;;;0.86;89.10
73860;BME280;62197;51.632;13.700;2023-03-01T08:07:55;101576.59;;;1.17;84.97
73860;BME280;62197;51.632;13.700;2023-03-01T08:10:21;101574.09;;;0.61;87.64
73860;BME280;62197;51.632;13.700;2023-03-01T08:12:46;101580.44;;;0.52;89.51
73860;BME280;62197;51.632;13.700;2023-03-01T08:15:11;101583.28;;;0.14;91.15
73860;BME280;62197;51.632;13.700;2023-03-01T08:17:37;101579.34;;;0.35;96.86
73860;BME280;62197;51.632;13.700;2023-03-01T08:20:03;101580.41;;;2.53;86.81
73860;BME280;62197;51.632;13.700;2023-03-01T08:22:31;101553.88;;;1.35;83.67
73860;BME280;62197;51.632;13.700;2023-03-01T08:24:56;101563.03;;;1.34;84.60
73860;BME280;62197;51.632;13.700;2023-03-01T08:27:21;101572.28;;;2.69;84.56
73860;BME280;62197;51.632;13.700;2023-03-01T08:29:47;101567.16;;;2.07;82.17
73860;BME280;62197;51.632;13.700;2023-03-01T08:32:12;101572.84;;;1.70;83.00
73860;BME280;62197;51.632;13.700;2023-03-01T08:34:37;101572.31;;;2.10;83.17
73860;BME280;62197;51.632;13.700;2023-03-01T08:37:03;101553.94;;;2.38;79.82
73860;BME280;62197;51.632;13.700;2023-03-01T08:39:28;101548.91;;;2.00;83.75
73860;BME280;62197;51.632;13.700;2023-03-01T08:41:54;101561.91;;;2.06;81.76
73860;BME280;62197;51.632;13.700;2023-03-01T08:44:19;101540.38;;;1.69;83.18
73860;BME280;62197;51.632;13.700;2023-03-01T08:46:46;101547.63;;;1.60;83.56
73860;BME280;62197;51.632;13.700;2023-03-01T08:49:17;101553.00;;;1.17;84.01
73860;BME280;62197;51.632;13.700;2023-03-01T08:51:43;101551.84;;;1.02;84.92
73860;BME280;62197;51.632;13.700;2023-03-01T08:54:16;101550.72;;;0.95;87.38
73860;BME280;62197;51.632;13.700;2023-03-01T08:56:43;101550.09;;;1.01;85.83
73860;BME280;62197;51.632;13.700;2023-03-01T08:59:13;101536.81;;;0.80;86.62
73860;BME280;62197;51.632;13.700;2023-03-01T09:01:39;101540.25;;;1.00;86.35
73860;BME280;62197;51.632;13.700;2023-03-01T09:04:05;101525.00;;;0.89;86.80
73860;BME280;62197;51.632;13.700;2023-03-01T09:06:32;101538.53;;;0.99;87.71
73860;BME280;62197;51.632;13.700;2023-03-01T09:08:58;101535.63;;;1.10;86.75
73860;BME280;62197;51.632;13.700;2023-03-01T09:11:23;101507.94;;;1.15;85.38
73860;BME280;62197;51.632;13.700;2023-03-01T09:13:49;101522.94;;;1.36;85.50
73860;BME280;62197;51.632;13.700;2023-03-01T09:16:16;101532.22;;;1.51;82.44
73860;BME280;62197;51.632;13.700;2023-03-01T09:18:42;101516.25;;;1.48;82.20
73860;BME280;62197;51.632;13.700;2023-03-01T09:21:13;101525.34;;;1.82;81.43
73860;BME280;62197;51.632;13.700;2023-03-01T09:23:41;101530.94;;;2.07;78.35
73860;BME280;62197;51.632;13.700;2023-03-01T09:26:07;101513.16;;;1.95;75.95
73860;BME280;62197;51.632;13.700;2023-03-01T09:28:34;101527.88;;;2.10;74.67
73860;BME280;62197;51.632;13.700;2023-03-01T09:31:01;101528.72;;;2.36;73.76
73860;BME280;62197;51.632;13.700;2023-03-01T09:33:28;101522.78;;;2.40;72.47
73860;BME280;62197;51.632;13.700;2023-03-01T09:36:02;101534.59;;;2.57;73.38
73860;BME280;62197;51.632;13.700;2023-03-01T09:38:28;101535.03;;;2.78;72.65
73860;BME280;62197;51.632;13.700;2023-03-01T09:40:54;101542.66;;;2.66;72.21
73860;BME280;62197;51.632;13.700;2023-03-01T09:43:43;101527.47;;;2.64;69.81
73860;BME280;62197;51.632;13.700;2023-03-01T09:46:13;101534.38;;;3.00;68.80
73860;BME280;62197;51.632;13.700;2023-03-01T09:48:45;101512.25;;;2.95;68.62
73860;BME280;62197;51.632;13.700;2023-03-01T09:51:23;101526.75;;;3.12;68.66
73860;BME280;62197;51.632;13.700;2023-03-01T09:53:50;101521.31;;;3.20;67.90
73860;BME280;62197;51.632;13.700;2023-03-01T09:56:29;101514.63;;;2.90;68.92
73860;BME280;62197;51.632;13.700;2023-03-01T10:02:11;101517.41;;;3.38;68.62
73860;BME280;62197;51.632;13.700;2023-03-01T10:05:06;101506.81;;;3.35;66.69
73860;BME280;62197;51.632;13.700;2023-03-01T10:07:58;101518.09;;;3.32;64.43
73860;BME280;62197;51.632;13.700;2023-03-01T10:10:32;101519.78;;;3.17;61.42
73860;BME280;62197;51.632;13.700;2023-03-01T10:13:00;101514.84;;;3.21;63.27
73860;BME280;62197;51.632;13.700;2023-03-01T10:15:34;101489.09;;;3.15;67.32
73860;BME280;62197;51.632;13.700;2023-03-01T10:18:09;101494.22;;;3.18;69.32
73860;BME280;62197;51.632;13.700;2023-03-01T10:20:58;101511.78;;;3.32;67.92
73860;BME280;62197;51.632;13.700;2023-03-01T10:23:25;101504.97;;;3.36;68.50
73860;BME280;62197;51.632;13.700;2023-03-01T10:26:10;101503.44;;;3.17;69.25
73860;BME280;62197;51.632;13.700;2023-03-01T10:31:37;101502.22;;;3.28;65.73
73860;BME280;62197;51.632;13.700;2023-03-01T10:34:15;101491.16;;;3.61;65.08
73860;BME280;62197;51.632;13.700;2023-03-01T10:36:42;101493.09;;;4.24;60.45
73860;BME280;62197;51.632;13.700;2023-03-01T10:39:17;101482.56;;;4.43;60.07
73860;BME280;62197;51.632;13.700;2023-03-01T10:42:04;101489.88;;;5.12;59.72
73860;BME280;62197;51.632;13.700;2023-03-01T10:44:43;101489.31;;;5.62;56.70
73860;BME280;62197;51.632;13.700;2023-03-01T10:47:21;101491.88;;;5.41;55.27
73860;BME280;62197;51.632;13.700;2023-03-01T10:50:18;101477.41;;;5.32;55.85
73860;BME280;62197;51.632;13.700;2023-03-01T10:52:56;101481.84;;;5.33;54.14
73860;BME280;62197;51.632;13.700;2023-03-01T10:55:35;101485.59;;;4.87;56.38
73860;BME280;62197;51.632;13.700;2023-03-01T10:58:18;101483.44;;;5.28;56.11
73860;BME280;62197;51.632;13.700;2023-03-01T11:00:58;101478.09;;;6.38;51.32
73860;BME280;62197;51.632;13.700;2023-03-01T11:03:34;101471.00;;;6.94;47.45
73860;BME280;62197;51.632;13.700;2023-03-01T11:06:01;101472.75;;;7.01;46.94
73860;BME280;62197;51.632;13.700;2023-03-01T11:08:41;101475.59;;;7.29;44.75
73860;BME280;62197;51.632;13.700;2023-03-01T11:11:29;101467.13;;;8.00;42.82
73860;BME280;62197;51.632;13.700;2023-03-01T11:14:07;101464.03;;;8.44;40.63
73860;BME280;62197;51.632;13.700;2023-03-01T11:16:40;101453.34;;;9.49;39.06
73860;BME280;62197;51.632;13.700;2023-03-01T11:22:20;101476.50;;;9.80;37.79
73860;BME280;62197;51.632;13.700;2023-03-01T11:24:26;101456.34;;;10.19;38.01
73860;BME280;62197;51.632;13.700;2023-03-01T11:26:55;101463.19;;;10.67;35.39
73860;BME280;62197;51.632;13.700;2023-03-01T11:29:32;101472.44;;;10.22;35.76
73860;BME280;62197;51.632;13.700;2023-03-01T11:32:01;101460.72;;;10.46;33.95
73860;BME280;62197;51.632;13.700;2023-03-01T11:35:01;101454.84;;;10.30;35.04
73860;BME280;62197;51.632;13.700;2023-03-01T11:37:34;101462.03;;;10.95;34.75
73860;BME280;62197;51.632;13.700;2023-03-01T11:40:12;101453.41;;;11.47;32.28
73860;BME280;62197;51.632;13.700;2023-03-01T11:42:48;101451.94;;;11.44;31.01
73860;BME280;62197;51.632;13.700;2023-03-01T11:45:15;101455.16;;;10.59;32.24
73860;BME280;62197;51.632;13.700;2023-03-01T11:50:42;101446.19;;;11.15;32.85
73860;BME280;62197;51.632;13.700;2023-03-01T12:05:06;101410.69;;;10.80;32.86
73860;BME280;62197;51.632;13.700;2023-03-01T12:10:33;101392.19;;;10.81;32.24
73860;BME280;62197;51.632;13.700;2023-03-01T12:21:11;101405.88;;;10.12;30.97
73860;BME280;62197;51.632;13.700;2023-03-01T12:24:01;101396.09;;;11.05;30.09
73860;BME280;62197;51.632;13.700;2023-03-01T12:29:29;101413.38;;;12.05;29.52
73860;BME280;62197;51.632;13.700;2023-03-01T12:32:02;101413.47;;;11.74;28.80
73860;BME280;62197;51.632;13.700;2023-03-01T12:35:05;101405.22;;;12.83;27.90
73860;BME280;62197;51.632;13.700;2023-03-01T12:37:49;101406.22;;;12.16;30.43
73860;BME280;62197;51.632;13.700;2023-03-01T12:48:19;101396.63;;;10.44;35.04
73860;BME280;62197;51.632;13.700;2023-03-01T12:50:50;101393.75;;;10.13;35.47
73860;BME280;62197;51.632;13.700;2023-03-01T12:53:29;101381.38;;;10.35;34.15
73860;BME280;62197;51.632;13.700;2023-03-01T12:56:00;101352.47;;;9.61;35.72
73860;BME280;62197;51.632;13.700;2023-03-01T12:58:38;101375.75;;;9.84;34.87
73860;BME280;62197;51.632;13.700;2023-03-01T13:04:14;101377.53;;;10.80;35.27
73860;BME280;62197;51.632;13.700;2023-03-01T13:06:47;101377.38;;;11.62;33.38
73860;BME280;62197;51.632;13.700;2023-03-01T13:09:28;101365.41;;;9.67;36.43
73860;BME280;62197;51.632;13.700;2023-03-01T13:11:56;101368.16;;;10.50;34.17
73860;BME280;62197;51.632;13.700;2023-03-01T13:16:49;101379.13;;;11.01;33.41
73860;BME280;62197;51.632;13.700;2023-03-01T13:19:16;101369.09;;;11.38;32.09
73860;BME280;62197;51.632;13.700;2023-03-01T13:21:44;101365.53;;;10.11;34.27
73860;BME280;62197;51.632;13.700;2023-03-01T13:24:35;101355.78;;;10.15;34.15
73860;BME280;62197;51.632;13.700;2023-03-01T13:29:58;101369.00;;;10.88;32.27
73860;BME280;62197;51.632;13.700;2023-03-01T13:32:30;101364.97;;;10.91;32.32
73860;BME280;62197;51.632;13.700;2023-03-01T13:34:59;101357.78;;;11.64;32.09
73860;BME280;62197;51.632;13.700;2023-03-01T13:37:31;101350.44;;;12.19;31.80
73860;BME280;62197;51.632;13.700;2023-03-01T13:39:58;101353.78;;;10.79;31.28
73860;BME280;62197;51.632;13.700;2023-03-01T13:42:41;101346.16;;;12.52;30.64
73860;BME280;62197;51.632;13.700;2023-03-01T13:45:40;101339.00;;;11.23;30.38
73860;BME280;62197;51.632;13.700;2023-03-01T13:48:23;101341.75;;;13.22;28.72